Bei Facebook empfehlenBei Twitter postenGoogle plusPinterest

Das Wetter im Erzgebirge am 10.05.2017

Wetter und Klima am 10.05.2017 Holzhau im Erzgebirge (630m ü.NN)
Letzte gemessene Temperatur und Uhrzeit der Messung23:45:00 Uhr1.90 °C
Temperatur (Maximum / Höchstwert) und Uhrzeit der Messung16:45:00 Uhr14.90 °C
Temperatur (Minimum / Tiefstwert) und Uhrzeit der Messung03:45:00-3.80 °C
Errechneter Absolutwert der Temperaturschwankungen zwischen Tmin und Tmax des Tages18.70 K
Errechnete Tagesmitteltemperatur5.35417 °C
Gesamt - Niederschlag des Tages (in flüssiger Form)0.00 Liter / m²
Luftdruck (Maximum / Höchstwert) und Zeitpunkt der Messung00:15:00 Uhr1010.40 hPa
Luftdruck (Minimum / Tiefstwert) und Zeitpunkt der Messung23:30:00 Uhr1003.00 hPa
Errechneter Absolutwert der Luftdruckschwankungen des Tages7.40 hPa
Höchste gemessene Windgeschwindigkeit und Uhrzeit der Messung17:15:00 Uhr13.68 km/h
Errechnete Windhäufigkeit in Relation zu den Messwerten des Tages22.91667 %
Niedrigste Windkühle (Windchill) und Zeitpunkt der Messung03:45:00 Uhr-3.80 °C
Taupunkt (Maximum / Höchstwert) und Uhrzeit der Messung17:00:00 Uhr3.40 °C
Taupunkt (Minimum / Tiefstwert) und Uhrzeit der Messung03:00:00-5.70 °C
Anzahl der automatisch eingelesenen Messwerte 96

Detaillierte Wetter- und Klima- Messwerte für den 10.05.2017 in Holzhau im Erzgebirge (630m ü.NN)
ZeitTemperaturLuftdruckRel. LuftfeuchteWindWindrichtungWindchillTaupunktNiederschlag l/m²
23:45:001.90 °C1003.10 hPa81.00 %-1.00 °C 
23:30:002.40 °C1003.00 hPa80.00 %-0.70 °C 
23:15:003.00 °C1003.10 hPa79.00 %-0.30 °C 
23:00:003.60 °C1003.00 hPa79.00 %0.30 °C 
22:45:003.90 °C1003.10 hPa80.00 %0.80 °C 
22:30:004.10 °C1003.10 hPa79.00 %0.80 °C 
22:15:004.20 °C1003.20 hPa78.00 %0.70 °C 
22:00:004.40 °C1003.10 hPa78.00 %0.90 °C 
21:45:004.90 °C1003.10 hPa77.00 %1.20 °C 
21:30:005.60 °C1003.20 hPa76.00 %1.70 °C 
21:15:006.20 °C1003.10 hPa74.00 %1.90 °C 
21:00:007.00 °C1003.20 hPa72.00 %2.30 °C 
20:45:007.60 °C1003.30 hPa70.00 %2.50 °C 
20:30:008.30 °C1003.20 hPa68.00 %2.80 °C 
20:15:009.10 °C1003.20 hPa65.00 %2.90 °C 
20:00:009.80 °C1003.10 hPa62.00 %2.90 °C 
19:45:0010.60 °C1003.20 hPa60.00 %3.20 °C 
19:30:0010.90 °C1003.20 hPa56.00 %2.50 °C 
19:15:0011.40 °C1003.40 hPa53.00 %2.20 °C 
19:00:0011.80 °C1003.40 hPa52.00 %2.30 °C 
18:45:0012.10 °C1003.30 hPa51.00 %2.30 °C 
18:30:0012.30 °C1003.50 hPa51.00 %2.50 °C 
18:15:0012.30 °C1003.70 hPa51.00 %2.52 km/hSW12.30 °C2.50 °C 
18:00:0012.40 °C1003.60 hPa50.00 %2.30 °C 
17:45:0012.40 °C1003.70 hPa49.00 %2.00 °C 
17:30:0012.80 °C1003.80 hPa48.00 %2.10 °C 
17:15:0014.10 °C1004.00 hPa45.00 %13.68 km/hWSW13.10 °C2.40 °C 
17:00:0014.60 °C1004.10 hPa47.00 %0.72 km/hNW14.60 °C3.40 °C 
16:45:0014.90 °C1004.10 hPa46.00 %3.40 °C 
16:30:0014.20 °C1004.20 hPa46.00 %2.80 °C 
16:15:0014.30 °C1004.40 hPa45.00 %10.80 km/hSW13.70 °C2.50 °C 
16:00:0014.40 °C1004.40 hPa45.00 %3.60 km/hWSW14.40 °C2.60 °C 
15:45:0014.40 °C1004.50 hPa46.00 %1.44 km/hWNW14.40 °C2.90 °C 
15:30:0014.20 °C1004.70 hPa47.00 %3.96 km/hWSW14.20 °C3.10 °C 
15:15:0013.90 °C1004.80 hPa47.00 %1.08 km/hWNW13.90 °C2.80 °C 
15:00:0013.90 °C1004.80 hPa47.00 %2.80 °C 
14:45:0013.80 °C1004.90 hPa47.00 %1.44 km/hNW13.80 °C2.70 °C 
14:30:0013.40 °C1005.20 hPa49.00 %2.90 °C 
14:15:0012.90 °C1005.40 hPa50.00 %3.96 km/hNW12.90 °C2.70 °C 
14:00:0012.10 °C1005.40 hPa50.00 %2.00 °C 
13:45:0011.40 °C1005.80 hPa52.00 %0.72 km/hWNW11.40 °C1.90 °C 
13:30:0010.90 °C1005.90 hPa53.00 %1.70 °C 
13:15:0010.60 °C1005.90 hPa52.00 %1.20 °C 
13:00:0010.50 °C1006.00 hPa52.00 %1.10 °C 
12:45:0011.30 °C1006.20 hPa50.00 %5.76 km/hNNW11.00 °C1.30 °C 
12:30:0010.90 °C1006.20 hPa52.00 %1.44 km/hWNW10.90 °C1.40 °C 
12:15:0011.00 °C1006.30 hPa52.00 %3.24 km/hWSW11.00 °C1.50 °C 
12:00:0010.60 °C1006.30 hPa53.00 %5.04 km/hWNW10.40 °C1.40 °C 
11:45:0010.10 °C1006.50 hPa53.00 %2.16 km/hNNW10.10 °C1.00 °C 
11:30:009.90 °C1006.70 hPa54.00 %1.00 °C 
11:15:009.90 °C1006.60 hPa52.00 %0.50 °C 
11:00:009.50 °C1006.80 hPa52.00 %7.56 km/hNW8.50 °C0.10 °C 
10:45:009.30 °C1006.80 hPa53.00 %0.20 °C 
10:30:009.00 °C1006.80 hPa54.00 %9.00 km/hSW7.60 °C0.20 °C 
10:15:008.90 °C1006.90 hPa56.00 %1.80 km/hNNW8.90 °C0.60 °C 
10:00:008.20 °C1006.90 hPa55.00 %-0.30 °C 
09:45:008.20 °C1006.90 hPa58.00 %0.40 °C 
09:30:008.30 °C1006.90 hPa61.00 %3.96 km/hWNW8.30 °C1.20 °C 
09:15:007.60 °C1006.90 hPa62.00 %0.80 °C 
09:00:006.90 °C1006.90 hPa66.00 %1.00 °C 
08:45:006.30 °C1007.00 hPa69.00 %1.00 °C 
08:30:004.90 °C1007.00 hPa77.00 %1.20 °C 
08:15:002.90 °C1006.90 hPa84.00 %0.50 °C 
08:00:001.10 °C1007.20 hPa86.00 %-1.00 °C 
07:45:000.40 °C1007.10 hPa87.00 %-1.50 °C 
07:30:00-0.20 °C1007.30 hPa87.00 %-2.30 °C 
07:15:00-0.70 °C1007.20 hPa88.00 %-2.60 °C 
07:00:00-1.10 °C1007.20 hPa89.00 %1.08 km/hSSO-1.10 °C-2.90 °C 
06:45:00-1.90 °C1007.40 hPa89.00 %-3.70 °C 
06:30:00-2.50 °C1007.50 hPa90.00 %-4.10 °C 
06:15:00-2.80 °C1007.60 hPa90.00 %-4.40 °C 
06:00:00-3.20 °C1007.50 hPa90.00 %-4.80 °C 
05:45:00-3.30 °C1007.70 hPa90.00 %-4.90 °C 
05:30:00-3.40 °C1007.60 hPa90.00 %-5.00 °C 
05:15:00-3.50 °C1007.60 hPa90.00 %-5.10 °C 
05:00:00-3.60 °C1007.80 hPa90.00 %3.24 km/hO-3.60 °C-5.20 °C 
04:45:00-3.60 °C1008.00 hPa90.00 %-5.20 °C 
04:30:00-3.60 °C1007.90 hPa90.00 %-5.20 °C 
04:15:00-3.60 °C1008.00 hPa90.00 %-5.20 °C 
04:00:00-3.70 °C1008.30 hPa89.00 %-5.40 °C 
03:45:00-3.80 °C1008.50 hPa89.00 %-5.50 °C 
03:30:00-3.80 °C1008.40 hPa89.00 %-5.50 °C 
03:15:00-3.80 °C1008.60 hPa89.00 %-5.50 °C 
03:00:00-3.80 °C1008.80 hPa88.00 %-5.70 °C 
02:45:00-3.60 °C1008.90 hPa89.00 %-5.30 °C 
02:30:00-3.50 °C1009.10 hPa88.00 %-5.40 °C 
02:15:00-3.40 °C1009.30 hPa88.00 %-5.30 °C 
02:00:00-3.20 °C1009.20 hPa88.00 %-5.10 °C 
01:45:00-3.10 °C1009.40 hPa88.00 %-5.00 °C 
01:30:00-3.10 °C1009.50 hPa88.00 %-5.00 °C 
01:15:00-3.10 °C1009.70 hPa88.00 %-5.00 °C 
01:00:00-3.30 °C1009.80 hPa88.00 %-5.20 °C 
00:45:00-3.30 °C1010.00 hPa88.00 %-5.20 °C 
00:30:00-3.20 °C1010.00 hPa87.00 %-5.30 °C 
00:15:00-3.10 °C1010.40 hPa86.00 %-5.30 °C 
00:00:00-2.90 °C1010.40 hPa86.00 %-5.10 °C 

Permanenter Link zu dieser Seite: Wetter im Erzgebirge am 10.05.2017
Performance-Info: Die Erstellung der Seite / Statistik(en) / Tabelle(n) erforderte 5 Datenbankserver-Abfrage(n) und dauerte 69 Millisekunden. (Dieser Messwert ist von der Gesamt-Auslastung des Servers abhängig.)
Erzgebirge - Wetter | Erzgebirge - Wetter (Mobilgeräte) | Komplette Klimadatenbank